Time;durP1;ratioP1;P1;durP2;ratioP2;P2;SDS_P1;SDS_P2;PMS_P1;PMS_P2;Temp;Humidity;BMP_temperature;BMP_pressure;BME280_temperature;BME280_humidity;BME280_pressure;Samples;Min_cycle;Max_cycle;Signal;HPM_P1;HPM_P2
2022/12/29 00:02:12;;;;;;;0.80;0.80;;;6.30;99.90;;;;;;5031759;28;20117;-76
2022/12/29 00:04:37;;;;;;;0.57;0.57;;;6.40;99.90;;;;;;5028202;28;20037;-76
2022/12/29 00:07:06;;;;;;;0.40;0.40;;;6.50;99.90;;;;;;5022470;28;20025;-77
2022/12/29 00:09:33;;;;;;;0.77;0.77;;;6.40;99.90;;;;;;5019071;28;20423;-74
2022/12/29 00:11:59;;;;;;;0.73;0.73;;;6.40;99.90;;;;;;5020894;28;20056;-74
2022/12/29 00:17:10;;;;;;;0.50;0.50;;;6.50;99.90;;;;;;5025564;28;20044;-75
2022/12/29 00:36:10;;;;;;;0.40;0.40;;;6.60;99.90;;;;;;5012210;28;20033;-75
2022/12/29 00:44:10;;;;;;;0.55;0.55;;;6.60;99.90;;;;;;5023418;28;20088;-76
2022/12/29 00:46:41;;;;;;;0.55;0.55;;;6.70;99.90;;;;;;5023968;28;20026;-77
2022/12/29 00:51:54;;;;;;;0.80;0.80;;;6.60;99.90;;;;;;5011864;28;20807;-77
2022/12/29 00:54:19;;;;;;;0.40;0.40;;;6.60;99.90;;;;;;5022030;28;20068;-77
2022/12/29 00:56:50;;;;;;;0.38;0.38;;;6.70;99.90;;;;;;5018007;28;20053;-77
2022/12/29 00:59:15;;;;;;;1.30;0.60;;;6.60;99.90;;;;;;5030053;28;20175;-76
2022/12/29 01:01:42;;;;;;;0.60;0.60;;;6.60;99.90;;;;;;5016619;28;20120;-77
2022/12/29 01:04:08;;;;;;;0.55;0.55;;;6.60;99.90;;;;;;5018588;28;20034;-75
2022/12/29 01:06:36;;;;;;;1.45;1.00;;;6.70;99.90;;;;;;5011046;28;20109;-77
2022/12/29 01:11:47;;;;;;;0.60;0.60;;;6.70;99.90;;;;;;5011366;28;20037;-77
2022/12/29 01:14:12;;;;;;;0.40;0.40;;;6.70;99.90;;;;;;5010075;28;20018;-77
2022/12/29 01:16:38;;;;;;;2.15;1.27;;;6.70;99.90;;;;;;5019610;28;20419;-77
2022/12/29 01:19:04;;;;;;;0.75;0.70;;;6.80;99.90;;;;;;5015654;28;20029;-77
2022/12/29 01:21:30;;;;;;;0.40;0.40;;;6.80;99.90;;;;;;5013153;28;20057;-77
2022/12/29 01:23:56;;;;;;;0.73;0.50;;;6.70;99.90;;;;;;5016974;28;20561;-76
2022/12/29 01:26:21;;;;;;;0.52;0.52;;;6.80;99.90;;;;;;5014893;28;20037;-76
2022/12/29 01:28:47;;;;;;;0.60;0.60;;;6.80;99.90;;;;;;5014504;28;20534;-76
2022/12/29 01:31:14;;;;;;;0.73;0.73;;;6.80;99.90;;;;;;5021324;28;20032;-76
2022/12/29 01:33:40;;;;;;;0.40;0.40;;;6.90;99.90;;;;;;5022423;28;20033;-76
2022/12/29 01:36:09;;;;;;;0.65;0.65;;;6.90;99.90;;;;;;5024083;28;20025;-77
2022/12/29 01:38:36;;;;;;;0.40;0.40;;;6.90;99.90;;;;;;5034864;28;20030;-77
2022/12/29 01:41:03;;;;;;;0.38;0.38;;;6.90;99.90;;;;;;5027650;28;20033;-74
2022/12/29 01:43:39;;;;;;;0.90;0.63;;;7.00;99.90;;;;;;5018202;28;20103;-75
2022/12/29 01:46:18;;;;;;;0.50;0.50;;;7.00;99.90;;;;;;5014866;28;20392;-74
2022/12/29 01:48:47;;;;;;;0.30;0.30;;;7.00;99.90;;;;;;5032681;28;20036;-76
2022/12/29 01:51:12;;;;;;;0.30;0.30;;;7.10;99.90;;;;;;5020024;28;20092;-76
2022/12/29 01:53:38;;;;;;;0.40;0.40;;;7.00;99.90;;;;;;5013341;28;20033;-77
2022/12/29 01:56:07;;;;;;;0.40;0.40;;;7.00;99.90;;;;;;5013553;28;20040;-77
2022/12/29 01:58:41;;;;;;;0.30;0.30;;;7.10;99.90;;;;;;5014459;28;20028;-75
2022/12/29 02:01:07;;;;;;;0.50;0.50;;;7.10;99.90;;;;;;5015750;28;20104;-77
2022/12/29 02:03:34;;;;;;;0.60;0.60;;;7.10;99.90;;;;;;5026397;28;20022;-77
2022/12/29 02:06:20;;;;;;;0.30;0.30;;;7.20;99.90;;;;;;5027663;28;20087;-77
2022/12/29 02:08:47;;;;;;;0.40;0.40;;;7.10;99.90;;;;;;5013936;28;20463;-76
2022/12/29 02:11:12;;;;;;;0.50;0.50;;;7.20;99.90;;;;;;5012637;28;20407;-76
2022/12/29 02:13:38;;;;;;;0.35;0.35;;;7.20;99.90;;;;;;5013822;28;20030;-76
2022/12/29 02:16:37;;;;;;;1.13;0.68;;;7.20;99.90;;;;;;5012318;28;20022;-76
2022/12/29 02:19:15;;;;;;;0.40;0.40;;;7.30;99.90;;;;;;5033171;28;20048;-76
2022/12/29 02:22:11;;;;;;;0.45;0.35;;;7.20;99.90;;;;;;5013790;28;20567;-76
2022/12/29 02:25:15;;;;;;;0.40;0.40;;;7.20;99.90;;;;;;5021336;28;20021;-76
2022/12/29 02:28:21;;;;;;;0.30;0.30;;;7.20;99.90;;;;;;5001917;28;20037;-77
2022/12/29 02:30:57;;;;;;;0.50;0.50;;;7.20;99.90;;;;;;5033031;28;20027;-76
2022/12/29 02:33:37;;;;;;;0.30;0.30;;;7.10;99.90;;;;;;5011435;28;20030;-75
2022/12/29 02:36:22;;;;;;;0.40;0.40;;;7.10;99.90;;;;;;5021806;28;20036;-76
2022/12/29 02:38:58;;;;;;;0.40;0.40;;;7.10;99.90;;;;;;5033033;28;20029;-76
2022/12/29 02:41:29;;;;;;;;;;;7.20;99.90;;;;;;5033499;28;20057;-76
2022/12/29 02:44:18;;;;;;;0.30;0.30;;;7.30;99.90;;;;;;5032788;28;19916;-76
2022/12/29 02:46:50;;;;;;;0.40;0.40;;;7.30;99.90;;;;;;5032888;28;20029;-76
2022/12/29 02:49:26;;;;;;;0.30;0.30;;;7.40;99.90;;;;;;5032903;28;20029;-75
2022/12/29 02:52:00;;;;;;;0.60;0.60;;;7.40;99.90;;;;;;5031562;28;20399;-76
2022/12/29 02:54:42;;;;;;;0.40;0.40;;;7.40;99.90;;;;;;5031449;28;20064;-76
2022/12/29 02:57:14;;;;;;;0.40;0.40;;;7.50;99.90;;;;;;5022639;28;20026;-76
2022/12/29 02:59:42;;;;;;;0.40;0.40;;;7.50;99.90;;;;;;5020106;28;20025;-74
2022/12/29 03:02:31;;;;;;;0.30;0.30;;;7.50;99.90;;;;;;5017590;28;20041;-76
2022/12/29 03:05:06;;;;;;;0.32;0.32;;;7.50;99.90;;;;;;5011717;28;20373;-75
2022/12/29 03:07:59;;;;;;;0.40;0.40;;;7.50;99.90;;;;;;5013442;28;20484;-76
2022/12/29 03:10:25;;;;;;;0.50;0.50;;;7.50;99.90;;;;;;5020260;28;20030;-75
2022/12/29 03:16:07;;;;;;;0.40;0.40;;;7.60;99.90;;;;;;5020015;28;20044;-75
2022/12/29 03:18:57;;;;;;;0.50;0.50;;;7.60;99.90;;;;;;5019057;28;20065;-75
2022/12/29 03:24:19;;;;;;;0.60;0.60;;;7.50;99.90;;;;;;5021269;28;20029;-75
2022/12/29 03:26:47;;;;;;;0.38;0.38;;;7.60;99.90;;;;;;5023923;28;20026;-76
2022/12/29 03:29:15;;;;;;;0.30;0.30;;;7.60;99.90;;;;;;5023682;28;20032;-76
2022/12/29 03:31:42;;;;;;;0.30;0.30;;;7.60;99.90;;;;;;5030678;28;20508;-76
2022/12/29 03:34:09;;;;;;;0.40;0.40;;;7.60;99.90;;;;;;5022892;28;20709;-75
2022/12/29 03:36:56;;;;;;;0.43;0.43;;;7.60;99.90;;;;;;5020245;28;20014;-76
2022/12/29 03:39:23;;;;;;;0.30;0.30;;;7.70;99.90;;;;;;5017984;28;20025;-76
2022/12/29 03:41:55;;;;;;;0.40;0.40;;;7.70;99.90;;;;;;5019836;28;20030;-76
2022/12/29 03:44:21;;;;;;;0.30;0.30;;;7.60;99.90;;;;;;5022207;28;20049;-76
2022/12/29 03:46:46;;;;;;;0.47;0.47;;;7.50;99.90;;;;;;5021832;28;20022;-75
2022/12/29 03:49:12;;;;;;;0.50;0.50;;;7.60;99.90;;;;;;5022286;28;20026;-74
2022/12/29 03:51:37;;;;;;;0.40;0.40;;;7.60;99.90;;;;;;5011452;28;20038;-73
2022/12/29 03:54:03;;;;;;;0.40;0.40;;;7.70;99.90;;;;;;5022706;28;20029;-73
2022/12/29 03:56:28;;;;;;;0.30;0.30;;;7.70;99.90;;;;;;5018720;28;20101;-74
2022/12/29 03:58:54;;;;;;;0.40;0.40;;;7.60;99.90;;;;;;5022644;28;20068;-75
2022/12/29 04:01:20;;;;;;;0.50;0.50;;;7.50;99.90;;;;;;5028915;28;20029;-75
2022/12/29 04:03:45;;;;;;;0.43;0.43;;;7.50;99.90;;;;;;5023089;28;20057;-75
2022/12/29 04:06:11;;;;;;;0.43;0.43;;;7.40;99.90;;;;;;5019274;28;20490;-73
2022/12/29 04:08:36;;;;;;;0.40;0.40;;;7.40;99.90;;;;;;5021962;28;20033;-75
2022/12/29 04:11:02;;;;;;;0.40;0.40;;;7.30;99.90;;;;;;5012376;28;20404;-74
2022/12/29 04:13:27;;;;;;;0.40;0.40;;;7.30;99.90;;;;;;5016679;28;20634;-74
2022/12/29 04:15:53;;;;;;;0.40;0.40;;;7.30;99.90;;;;;;5025789;28;20058;-74
2022/12/29 04:18:18;;;;;;;0.40;0.40;;;7.40;99.90;;;;;;5012224;28;20113;-76
2022/12/29 04:20:59;;;;;;;0.40;0.40;;;7.30;99.90;;;;;;5015392;28;20112;-76
2022/12/29 04:23:25;;;;;;;0.50;0.50;;;7.30;99.90;;;;;;5020234;28;20048;-75
2022/12/29 04:25:50;;;;;;;0.40;0.40;;;7.20;99.90;;;;;;5017438;28;20472;-75
2022/12/29 04:28:16;;;;;;;0.47;0.47;;;7.20;99.90;;;;;;5031795;28;20029;-74
2022/12/29 04:30:43;;;;;;;0.43;0.43;;;7.20;99.90;;;;;;5018571;28;20052;-73
2022/12/29 04:33:08;;;;;;;0.40;0.40;;;7.20;99.90;;;;;;5020735;28;20113;-74
2022/12/29 04:35:34;;;;;;;1.00;1.00;;;7.20;99.90;;;;;;5023864;28;20113;-74
2022/12/29 04:38:00;;;;;;;0.40;0.40;;;7.20;99.90;;;;;;5023096;28;20049;-74
2022/12/29 04:40:25;;;;;;;0.40;0.40;;;7.10;99.90;;;;;;5018552;28;20029;-74
2022/12/29 04:42:51;;;;;;;0.60;0.60;;;7.00;99.90;;;;;;5019042;28;20026;-73
2022/12/29 04:45:17;;;;;;;0.50;0.50;;;7.00;99.90;;;;;;5025370;28;20030;-73
2022/12/29 04:47:42;;;;;;;0.40;0.40;;;7.00;99.90;;;;;;5022741;28;20021;-73
2022/12/29 04:50:08;;;;;;;0.50;0.50;;;7.10;99.90;;;;;;5017255;28;20032;-74
2022/12/29 04:52:34;;;;;;;0.50;0.50;;;7.10;99.90;;;;;;5020582;28;20511;-74
2022/12/29 04:55:00;;;;;;;0.50;0.50;;;7.10;99.90;;;;;;5011903;28;20361;-77
2022/12/29 04:57:26;;;;;;;0.57;0.57;;;7.10;99.90;;;;;;5026236;28;20033;-76
2022/12/29 04:59:51;;;;;;;0.70;0.70;;;7.10;99.90;;;;;;5024887;28;20028;-77
2022/12/29 05:02:17;;;;;;;1.83;1.73;;;7.10;99.90;;;;;;5038181;28;20030;-76
2022/12/29 05:04:43;;;;;;;0.45;0.45;;;7.10;99.90;;;;;;5023649;28;20053;-76
2022/12/29 05:07:08;;;;;;;0.50;0.50;;;7.10;99.90;;;;;;5027213;28;20037;-76
2022/12/29 05:09:34;;;;;;;0.40;0.40;;;7.10;99.90;;;;;;5031715;28;20029;-77
2022/12/29 05:11:59;;;;;;;0.80;0.80;;;7.10;99.90;;;;;;5028788;28;20064;-75
2022/12/29 05:14:25;;;;;;;0.95;0.95;;;7.10;99.90;;;;;;5024640;28;20689;-75
2022/12/29 05:16:50;;;;;;;0.43;0.43;;;7.10;99.90;;;;;;5027296;28;20022;-74
2022/12/29 05:19:16;;;;;;;0.45;0.45;;;7.10;99.90;;;;;;5031703;28;20026;-75
2022/12/29 05:21:42;;;;;;;0.50;0.50;;;7.00;99.90;;;;;;5027129;28;20083;-76
2022/12/29 05:24:08;;;;;;;0.50;0.50;;;7.00;99.90;;;;;;5019887;28;20175;-76
2022/12/29 05:26:34;;;;;;;0.50;0.50;;;7.10;99.90;;;;;;5028354;28;20100;-76
2022/12/29 05:28:59;;;;;;;0.63;0.63;;;7.10;99.90;;;;;;5024588;28;20105;-77
2022/12/29 05:31:25;;;;;;;1.08;0.95;;;7.00;99.90;;;;;;5026921;28;20040;-75
2022/12/29 05:33:51;;;;;;;5.88;5.38;;;7.00;99.90;;;;;;5017641;28;20060;-77
2022/12/29 05:36:17;;;;;;;0.40;0.40;;;6.90;99.90;;;;;;5017959;28;20072;-76
2022/12/29 05:38:43;;;;;;;0.47;0.47;;;6.90;99.90;;;;;;5053794;28;20018;-74
2022/12/29 05:41:08;;;;;;;0.55;0.55;;;6.80;99.90;;;;;;5051570;28;20036;-74
2022/12/29 05:43:34;;;;;;;0.40;0.40;;;6.80;99.90;;;;;;5040805;28;20560;-74
2022/12/29 05:45:59;;;;;;;0.40;0.40;;;6.70;99.90;;;;;;5044286;28;20064;-76
2022/12/29 05:48:25;;;;;;;0.63;0.63;;;6.70;99.90;;;;;;5055926;28;20036;-75
2022/12/29 05:50:51;;;;;;;0.60;0.60;;;6.80;99.90;;;;;;5055520;28;20029;-74
2022/12/29 05:53:17;;;;;;;0.85;0.85;;;6.80;99.90;;;;;;5051370;28;20018;-75
2022/12/29 05:55:45;;;;;;;0.50;0.50;;;6.80;99.90;;;;;;5036865;28;20022;-75
2022/12/29 05:58:11;;;;;;;0.40;0.40;;;6.80;99.90;;;;;;5017620;28;20030;-75
2022/12/29 06:00:36;;;;;;;0.50;0.50;;;6.80;99.90;;;;;;5027175;28;20037;-75
2022/12/29 06:03:02;;;;;;;0.40;0.40;;;6.80;99.90;;;;;;5021491;28;20033;-75
2022/12/29 06:05:28;;;;;;;0.52;0.52;;;6.90;99.90;;;;;;5018027;28;20056;-74
2022/12/29 06:07:53;;;;;;;0.50;0.50;;;6.80;99.90;;;;;;5016633;28;20052;-76
2022/12/29 06:10:20;;;;;;;0.45;0.45;;;6.90;99.90;;;;;;5023524;28;20033;-75
2022/12/29 06:12:46;;;;;;;0.40;0.40;;;6.90;99.90;;;;;;5019576;28;20029;-77
2022/12/29 06:15:12;;;;;;;0.60;0.60;;;7.00;99.90;;;;;;5024606;28;20362;-74
2022/12/29 06:17:38;;;;;;;0.50;0.50;;;7.10;99.90;;;;;;5031037;28;20028;-75
2022/12/29 06:20:05;;;;;;;0.40;0.40;;;7.10;99.90;;;;;;5034462;28;20021;-75
2022/12/29 06:22:30;;;;;;;0.65;0.65;;;7.10;99.90;;;;;;5020808;28;20112;-76
2022/12/29 06:24:56;;;;;;;1.55;1.45;;;7.10;99.90;;;;;;5034225;28;20109;-76
2022/12/29 06:27:21;;;;;;;1.08;1.00;;;7.10;99.90;;;;;;5020585;28;20044;-75
2022/12/29 06:29:47;;;;;;;2.20;1.48;;;7.10;99.90;;;;;;5024347;28;20057;-75
2022/12/29 06:32:12;;;;;;;0.50;0.50;;;7.10;99.90;;;;;;5027630;28;20087;-75
2022/12/29 06:34:38;;;;;;;0.47;0.47;;;7.10;99.90;;;;;;5014129;28;20033;-76
2022/12/29 06:37:04;;;;;;;0.50;0.50;;;7.00;99.90;;;;;;5016082;28;20052;-76
2022/12/29 06:39:29;;;;;;;0.60;0.60;;;7.10;99.90;;;;;;5014092;28;20115;-75
2022/12/29 06:41:55;;;;;;;0.60;0.60;;;7.10;99.90;;;;;;5015647;28;20048;-72
2022/12/29 06:44:21;;;;;;;0.60;0.60;;;7.10;99.90;;;;;;5012982;28;20057;-74
2022/12/29 06:46:47;;;;;;;0.40;0.40;;;7.10;99.90;;;;;;5014804;28;20068;-75
2022/12/29 06:49:13;;;;;;;0.77;0.77;;;7.10;99.90;;;;;;5024992;28;20030;-76
2022/12/29 06:51:38;;;;;;;0.45;0.45;;;7.10;99.90;;;;;;5027854;28;20055;-76
2022/12/29 06:54:04;;;;;;;0.60;0.60;;;7.10;99.90;;;;;;5032837;28;20369;-76
2022/12/29 06:56:30;;;;;;;0.98;0.93;;;7.10;99.90;;;;;;5020171;28;20057;-76
2022/12/29 06:58:56;;;;;;;0.40;0.40;;;7.10;99.90;;;;;;5032896;28;20029;-76
2022/12/29 07:01:21;;;;;;;0.40;0.40;;;7.20;99.90;;;;;;5020203;28;20392;-75
2022/12/29 07:03:47;;;;;;;0.55;0.50;;;7.20;99.90;;;;;;5016016;28;20056;-76
2022/12/29 07:06:13;;;;;;;0.40;0.40;;;7.30;99.90;;;;;;5012392;28;20038;-76
2022/12/29 07:08:38;;;;;;;2.55;0.77;;;7.30;99.90;;;;;;5012288;28;20041;-76
2022/12/29 07:11:05;;;;;;;0.30;0.30;;;7.20;99.90;;;;;;5025413;28;20033;-76
2022/12/29 07:13:30;;;;;;;2.70;1.58;;;7.20;99.90;;;;;;5021829;28;20021;-76
2022/12/29 07:15:56;;;;;;;0.80;0.80;;;7.20;99.90;;;;;;5018334;28;20560;-76
2022/12/29 07:18:21;;;;;;;0.38;0.38;;;7.20;99.90;;;;;;5021372;28;20352;-73
2022/12/29 07:20:47;;;;;;;1.65;1.50;;;7.20;99.90;;;;;;5017992;28;20456;-76
2022/12/29 07:23:13;;;;;;;0.75;0.75;;;7.30;99.90;;;;;;5013271;28;20033;-76
2022/12/29 07:25:41;;;;;;;0.60;0.60;;;7.30;99.90;;;;;;5011977;28;20022;-77
2022/12/29 07:28:06;;;;;;;1.02;0.93;;;7.30;99.90;;;;;;5013111;28;20025;-76
2022/12/29 07:30:32;;;;;;;0.40;0.40;;;7.30;99.90;;;;;;5013112;28;20030;-77
2022/12/29 07:32:58;;;;;;;0.30;0.30;;;7.30;99.90;;;;;;5013209;28;20041;-77
2022/12/29 07:35:24;;;;;;;5.32;4.60;;;7.30;99.90;;;;;;5016942;28;20108;-77
2022/12/29 07:37:50;;;;;;;0.50;0.50;;;7.30;99.90;;;;;;5022290;28;20029;-77
2022/12/29 07:40:15;;;;;;;0.50;0.50;;;7.30;99.90;;;;;;5016105;28;20445;-76
2022/12/29 07:42:41;;;;;;;0.40;0.40;;;7.30;99.90;;;;;;5023386;28;20080;-77
2022/12/29 07:45:08;;;;;;;0.50;0.50;;;7.40;99.90;;;;;;5013117;28;20087;-77
2022/12/29 07:47:34;;;;;;;0.40;0.40;;;7.40;99.90;;;;;;5021465;28;20025;-77
2022/12/29 07:50:00;;;;;;;0.60;0.60;;;7.40;99.90;;;;;;5019799;28;20025;-77
2022/12/29 07:52:25;;;;;;;1.30;1.00;;;7.50;99.90;;;;;;5032385;28;20030;-77
2022/12/29 07:54:51;;;;;;;0.40;0.40;;;7.50;99.90;;;;;;5019537;28;20105;-77
2022/12/29 07:57:16;;;;;;;0.60;0.60;;;7.50;99.90;;;;;;5022259;28;20022;-77
2022/12/29 07:59:42;;;;;;;0.52;0.52;;;7.40;99.90;;;;;;5026184;28;20067;-76
2022/12/29 08:02:10;;;;;;;0.38;0.38;;;7.40;99.90;;;;;;5021258;28;20029;-77
2022/12/29 08:04:35;;;;;;;0.63;0.50;;;7.40;99.90;;;;;;5019121;28;20032;-76
2022/12/29 08:07:01;;;;;;;0.40;0.40;;;7.40;99.90;;;;;;5022123;28;20399;-77
2022/12/29 08:09:26;;;;;;;0.40;0.40;;;7.50;99.90;;;;;;5025768;28;20498;-77
2022/12/29 08:11:53;;;;;;;0.70;0.70;;;7.40;99.90;;;;;;5011803;28;20117;-77
2022/12/29 08:14:19;;;;;;;2.53;0.77;;;7.50;99.90;;;;;;5025710;28;20029;-78
2022/12/29 08:16:44;;;;;;;0.40;0.40;;;7.50;99.90;;;;;;5022161;28;20528;-76
2022/12/29 08:19:11;;;;;;;1.23;0.60;;;7.50;99.90;;;;;;5025074;28;20499;-77
2022/12/29 08:21:37;;;;;;;0.50;0.50;;;7.60;99.90;;;;;;5028111;28;20448;-76
2022/12/29 08:24:03;;;;;;;0.73;0.65;;;7.60;99.90;;;;;;5025877;28;20026;-76
2022/12/29 08:26:28;;;;;;;0.30;0.30;;;7.70;99.90;;;;;;5011291;28;20073;-76
2022/12/29 08:28:55;;;;;;;0.40;0.40;;;7.70;99.90;;;;;;5011669;28;20084;-76
2022/12/29 08:31:21;;;;;;;0.50;0.50;;;7.70;99.90;;;;;;5020171;28;20079;-76
2022/12/29 08:33:47;;;;;;;0.30;0.30;;;7.80;99.90;;;;;;5019171;28;20030;-76
2022/12/29 08:36:12;;;;;;;1.23;1.10;;;7.80;99.90;;;;;;5012017;28;20037;-76
2022/12/29 08:38:38;;;;;;;14.80;3.58;;;7.70;99.90;;;;;;5010400;28;20037;-76
2022/12/29 08:41:04;;;;;;;0.40;0.40;;;7.80;99.90;;;;;;5011948;28;20025;-77
2022/12/29 08:43:29;;;;;;;1.75;1.38;;;7.80;99.90;;;;;;5011649;28;20033;-76
2022/12/29 08:45:56;;;;;;;0.60;0.60;;;7.80;99.90;;;;;;5010720;28;20034;-76
2022/12/29 08:48:22;;;;;;;0.30;0.30;;;7.80;99.90;;;;;;5010696;28;20033;-76
2022/12/29 08:50:49;;;;;;;0.60;0.60;;;7.90;99.90;;;;;;5019779;28;20029;-76
2022/12/29 08:53:15;;;;;;;0.30;0.30;;;7.90;99.90;;;;;;5031427;28;20025;-76
2022/12/29 08:55:40;;;;;;;0.55;0.55;;;7.90;99.90;;;;;;5030309;28;20030;-76
2022/12/29 08:58:06;;;;;;;0.70;0.70;;;7.90;99.90;;;;;;5031279;28;20021;-76
2022/12/29 09:00:31;;;;;;;0.98;0.90;;;7.90;99.90;;;;;;5031332;28;20035;-76
2022/12/29 09:02:57;;;;;;;0.88;0.88;;;8.00;99.90;;;;;;5028807;28;20436;-76
2022/12/29 09:05:22;;;;;;;0.32;0.32;;;7.90;99.90;;;;;;5010524;28;20084;-76
2022/12/29 09:07:48;;;;;;;0.60;0.60;;;7.90;99.90;;;;;;5011340;28;20034;-76
2022/12/29 09:10:14;;;;;;;0.55;0.55;;;8.00;99.90;;;;;;5010375;28;20026;-76
2022/12/29 09:12:39;;;;;;;0.47;0.47;;;8.00;99.90;;;;;;5011509;28;20504;-76
2022/12/29 09:15:06;;;;;;;0.30;0.30;;;8.10;99.90;;;;;;5010277;28;20076;-76
2022/12/29 09:17:44;;;;;;;0.65;0.65;;;8.10;99.90;;;;;;5011273;28;20022;-76
2022/12/29 09:20:12;;;;;;;0.65;0.65;;;8.10;99.90;;;;;;5010405;28;20058;-77
2022/12/29 09:22:37;;;;;;;0.55;0.55;;;8.20;99.90;;;;;;5011375;28;20448;-76
2022/12/29 09:25:03;;;;;;;0.32;0.32;;;8.20;99.90;;;;;;5010567;28;20064;-76
2022/12/29 09:27:29;;;;;;;3.10;1.48;;;8.20;99.90;;;;;;5028980;28;20479;-76
2022/12/29 09:29:55;;;;;;;0.50;0.50;;;8.20;99.90;;;;;;5029996;28;20021;-76
2022/12/29 09:32:21;;;;;;;0.40;0.40;;;8.20;99.90;;;;;;5034028;28;20026;-76
2022/12/29 09:34:46;;;;;;;1.73;0.52;;;8.20;99.90;;;;;;5011548;28;20531;-77
2022/12/29 09:37:12;;;;;;;0.28;0.28;;;8.30;99.90;;;;;;5011107;28;20080;-76
2022/12/29 09:39:37;;;;;;;1.25;0.45;;;8.40;99.90;;;;;;5011390;28;20093;-76
2022/12/29 09:42:16;;;;;;;1.20;0.70;;;8.30;99.90;;;;;;5011135;28;20373;-76
2022/12/29 09:44:54;;;;;;;0.50;0.50;;;8.30;99.90;;;;;;5014978;28;20412;-76
2022/12/29 09:47:22;;;;;;;0.30;0.30;;;8.30;99.90;;;;;;5014949;28;20030;-77
2022/12/29 09:49:53;;;;;;;3.60;0.60;;;8.40;99.90;;;;;;5014971;28;20412;-76
2022/12/29 09:52:25;;;;;;;0.20;0.20;;;8.40;99.90;;;;;;5014815;28;20030;-76
2022/12/29 09:54:58;;;;;;;0.40;0.40;;;8.50;99.90;;;;;;5014917;28;20026;-77
2022/12/29 09:57:39;;;;;;;0.40;0.40;;;8.40;99.90;;;;;;5014765;28;20476;-76
2022/12/29 10:00:18;;;;;;;0.40;0.40;;;8.50;99.90;;;;;;5013440;28;20029;-76
2022/12/29 10:02:49;;;;;;;0.22;0.22;;;8.60;99.90;;;;;;5028124;28;20040;-76
2022/12/29 10:05:47;;;;;;;0.30;0.30;;;8.60;99.90;;;;;;5022585;28;20041;-77
2022/12/29 10:08:44;;;;;;;0.30;0.30;;;8.60;99.90;;;;;;5034195;28;20038;-76
2022/12/29 10:11:16;;;;;;;0.40;0.40;;;8.60;99.90;;;;;;5034002;28;20029;-76
2022/12/29 10:14:24;;;;;;;0.50;0.50;;;8.80;99.90;;;;;;5033024;28;20033;-77
2022/12/29 10:16:57;;;;;;;0.40;0.40;;;8.70;99.90;;;;;;5005674;28;20037;-76
2022/12/29 10:19:53;;;;;;;0.30;0.30;;;8.70;99.90;;;;;;5032944;28;20064;-80
2022/12/29 10:22:36;;;;;;;0.30;0.30;;;8.60;99.90;;;;;;5034093;28;20064;-75
2022/12/29 10:25:17;;;;;;;0.22;0.22;;;8.50;99.90;;;;;;5023000;28;20030;-76
2022/12/29 10:27:43;;;;;;;0.30;0.30;;;8.60;99.90;;;;;;5013942;28;20409;-76
2022/12/29 10:30:12;;;;;;;0.70;0.70;;;8.70;99.90;;;;;;5012971;28;20089;-77
2022/12/29 10:32:45;;;;;;;0.30;0.30;;;8.70;99.90;;;;;;5028604;28;20377;-77
2022/12/29 10:35:23;;;;;;;0.88;0.88;;;8.70;99.90;;;;;;5013806;28;20022;-76
2022/12/29 10:38:15;;;;;;;0.30;0.30;;;8.60;99.90;;;;;;5033793;28;20030;-75
2022/12/29 10:40:58;;;;;;;0.30;0.30;;;8.50;99.90;;;;;;5033804;28;20227;-76
2022/12/29 10:43:32;;;;;;;0.35;0.35;;;8.50;99.90;;;;;;5033927;28;20025;-76
2022/12/29 10:46:02;;;;;;;0.50;0.50;;;8.50;99.90;;;;;;5033764;28;20434;-76
2022/12/29 10:48:33;;;;;;;0.30;0.30;;;8.50;99.90;;;;;;5033133;28;20025;-76
2022/12/29 10:51:03;;;;;;;0.30;0.30;;;8.60;99.90;;;;;;5033435;28;20266;-76
2022/12/29 10:53:41;;;;;;;0.30;0.30;;;8.60;99.90;;;;;;5032236;28;20049;-77
2022/12/29 10:56:34;;;;;;;0.30;0.30;;;8.60;99.90;;;;;;5033296;28;20021;-76
2022/12/29 10:59:14;;;;;;;0.30;0.30;;;8.60;99.90;;;;;;5032863;28;20037;-76
2022/12/29 11:01:50;;;;;;;0.50;0.50;;;8.70;99.90;;;;;;5032238;28;20079;-76
2022/12/29 11:04:53;;;;;;;0.30;0.30;;;8.80;99.90;;;;;;5033503;28;20021;-76
2022/12/29 11:07:20;;;;;;;1.27;0.82;;;8.70;99.90;;;;;;5033000;28;20479;-76
2022/12/29 11:09:46;;;;;;;0.73;0.73;;;8.70;99.90;;;;;;5031882;28;20117;-76
2022/12/29 11:12:20;;;;;;;0.52;0.52;;;8.80;99.90;;;;;;5032121;28;20029;-76
2022/12/29 11:14:45;;;;;;;0.40;0.40;;;8.80;99.90;;;;;;5031905;28;20025;-76
2022/12/29 11:17:16;;;;;;;0.47;0.47;;;8.80;99.90;;;;;;5031670;28;20429;-76
2022/12/29 11:19:42;;;;;;;1.40;1.33;;;8.90;99.90;;;;;;5032030;28;20022;-77
2022/12/29 11:22:22;;;;;;;1.13;0.73;;;8.90;99.90;;;;;;5031831;28;20079;-77
2022/12/29 11:24:48;;;;;;;0.43;0.43;;;9.00;99.90;;;;;;5024053;28;20030;-76
2022/12/29 11:27:17;;;;;;;0.30;0.30;;;9.10;99.90;;;;;;5013076;28;20044;-77
2022/12/29 11:29:43;;;;;;;0.50;0.50;;;9.10;99.90;;;;;;5013482;28;20030;-77
2022/12/29 11:32:24;;;;;;;0.60;0.60;;;9.20;99.90;;;;;;5028761;28;20029;-75
2022/12/29 11:34:50;;;;;;;0.93;0.70;;;9.20;99.90;;;;;;5013230;28;20024;-77
2022/12/29 11:37:19;;;;;;;0.55;0.55;;;9.30;99.90;;;;;;5012962;28;20029;-77
2022/12/29 11:40:05;;;;;;;0.40;0.40;;;9.30;99.90;;;;;;5012841;28;20026;-77
2022/12/29 11:42:47;;;;;;;0.50;0.50;;;9.50;99.90;;;;;;5021127;28;20518;-77
2022/12/29 11:45:20;;;;;;;0.30;0.30;;;9.60;99.90;;;;;;5032879;28;20041;-77
2022/12/29 11:47:49;;;;;;;0.73;0.73;;;9.40;99.90;;;;;;5031242;28;20025;-77
2022/12/29 11:50:25;;;;;;;0.40;0.40;;;9.30;99.90;;;;;;5032865;28;20036;-77
2022/12/29 11:52:57;;;;;;;;;;;9.30;99.90;;;;;;5020197;28;20057;-77
2022/12/29 11:55:26;;;;;;;0.47;0.47;;;9.30;99.90;;;;;;5018604;28;19905;-77
2022/12/29 11:57:54;;;;;;;0.35;0.35;;;9.30;99.90;;;;;;5017970;28;20108;-76
2022/12/29 12:00:24;;;;;;;0.40;0.40;;;9.40;99.90;;;;;;5012750;28;20022;-77
2022/12/29 12:02:56;;;;;;;0.40;0.40;;;9.50;99.90;;;;;;5011488;28;20022;-76
2022/12/29 12:05:52;;;;;;;0.40;0.40;;;9.60;99.90;;;;;;5011579;28;20504;-77
2022/12/29 12:08:39;;;;;;;0.40;0.40;;;9.60;99.90;;;;;;5017474;28;20029;-77
2022/12/29 12:11:15;;;;;;;0.32;0.32;;;9.60;99.90;;;;;;5032170;28;20436;-77
2022/12/29 12:14:02;;;;;;;0.70;0.70;;;9.60;99.90;;;;;;5032419;28;20022;-77
2022/12/29 12:16:47;;;;;;;0.38;0.38;;;9.60;99.90;;;;;;5032511;28;20481;-77
2022/12/29 12:19:28;;;;;;;0.30;0.30;;;9.50;99.90;;;;;;5031186;28;20036;-76
2022/12/29 12:22:07;;;;;;;0.52;0.50;;;9.50;99.90;;;;;;5031311;28;20272;-77
2022/12/29 12:24:39;;;;;;;0.30;0.30;;;9.50;99.90;;;;;;5024875;28;20018;-76
2022/12/29 12:27:14;;;;;;;0.30;0.30;;;9.50;99.90;;;;;;5012324;28;20022;-76
2022/12/29 12:30:02;;;;;;;0.20;0.20;;;9.50;99.90;;;;;;5011177;28;20034;-76
2022/12/29 12:32:50;;;;;;;0.93;0.60;;;9.50;99.90;;;;;;5028102;28;20030;-76
2022/12/29 12:35:24;;;;;;;0.20;0.20;;;9.60;99.90;;;;;;5012423;28;20052;-76
2022/12/29 12:38:01;;;;;;;0.28;0.28;;;9.50;99.90;;;;;;5012160;28;20029;-76
2022/12/29 12:40:34;;;;;;;0.28;0.28;;;9.50;99.90;;;;;;5012149;28;20025;-75
2022/12/29 12:43:14;;;;;;;0.40;0.40;;;9.50;99.90;;;;;;5012283;28;20044;-75
2022/12/29 12:45:58;;;;;;;0.30;0.30;;;9.50;99.90;;;;;;5018061;28;20459;-76
2022/12/29 12:48:42;;;;;;;0.30;0.30;;;9.50;99.90;;;;;;5031711;28;20025;-75
2022/12/29 12:51:24;;;;;;;0.40;0.40;;;9.50;99.90;;;;;;5031776;28;20030;-75
2022/12/29 12:54:10;;;;;;;0.30;0.30;;;9.60;99.90;;;;;;5031648;28;20030;-75
2022/12/29 12:57:11;;;;;;;0.57;0.57;;;9.60;99.90;;;;;;5030542;28;20026;-75
2022/12/29 12:59:39;;;;;;;0.30;0.30;;;9.60;99.90;;;;;;4999948;28;20037;-75
2022/12/29 13:02:39;;;;;;;0.73;0.73;;;9.70;99.90;;;;;;5031750;28;20030;-75
2022/12/29 13:05:07;;;;;;;0.30;0.30;;;9.60;99.90;;;;;;5032076;28;20025;-75
2022/12/29 13:07:52;;;;;;;0.38;0.38;;;9.50;99.90;;;;;;5030375;28;20075;-75
2022/12/29 13:10:31;;;;;;;1.02;1.00;;;9.50;99.90;;;;;;5032132;28;20029;-75
2022/12/29 13:13:06;;;;;;;0.50;0.50;;;9.60;99.90;;;;;;5035947;28;20104;-75
2022/12/29 13:15:50;;;;;;;0.60;0.60;;;9.60;99.90;;;;;;5034970;28;20068;-75
2022/12/29 13:18:37;;;;;;;0.95;0.65;;;9.50;99.90;;;;;;5032700;28;20018;-75
2022/12/29 13:21:18;;;;;;;0.30;0.30;;;9.50;99.90;;;;;;5035330;28;20029;-75
2022/12/29 13:24:02;;;;;;;0.30;0.30;;;9.50;99.90;;;;;;5033580;28;20021;-75
2022/12/29 13:26:35;;;;;;;0.30;0.30;;;9.50;99.90;;;;;;5014231;28;20030;-76
2022/12/29 13:29:16;;;;;;;0.40;0.40;;;9.60;99.90;;;;;;5015069;28;20129;-75
2022/12/29 13:31:47;;;;;;;0.38;0.38;;;9.60;99.90;;;;;;5028596;28;20021;-75
2022/12/29 13:34:16;;;;;;;0.40;0.40;;;9.60;99.90;;;;;;5015835;28;20022;-75
2022/12/29 13:37:03;;;;;;;0.30;0.30;;;9.50;99.90;;;;;;5015459;28;20021;-75
2022/12/29 13:39:37;;;;;;;0.50;0.50;;;9.60;99.90;;;;;;5015395;28;20036;-75
2022/12/29 13:42:04;;;;;;;0.40;0.40;;;9.70;99.90;;;;;;5015456;28;20388;-75
2022/12/29 13:44:35;;;;;;;0.30;0.30;;;9.80;99.90;;;;;;5015646;28;20029;-75
2022/12/29 13:47:16;;;;;;;0.63;0.63;;;9.80;99.90;;;;;;5013777;28;20030;-76
2022/12/29 13:49:43;;;;;;;0.40;0.40;;;9.80;99.90;;;;;;5015028;28;20030;-76
2022/12/29 13:52:21;;;;;;;0.30;0.30;;;9.70;99.90;;;;;;5015077;28;20029;-76
2022/12/29 13:55:22;;;;;;;0.40;0.40;;;9.70;99.90;;;;;;5025498;28;20300;-76